sensor_id;sensor_type;location;lat;lon;timestamp;pressure;altitude;pressure_sealevel;temperature;humidity
57094;BME280;42970;50.996;3.706;2023-02-16T00:00:48;76598.34;;;-146.65;100.00
57094;BME280;42970;50.996;3.706;2023-02-16T00:03:15;76588.25;;;-146.65;100.00
57094;BME280;42970;50.996;3.706;2023-02-16T00:05:40;76604.41;;;-146.65;100.00
57094;BME280;42970;50.996;3.706;2023-02-16T00:08:05;76618.53;;;-146.65;100.00
57094;BME280;42970;50.996;3.706;2023-02-16T00:10:32;76630.63;;;-146.65;100.00
57094;BME280;42970;50.996;3.706;2023-02-16T00:12:58;76626.59;;;-146.65;100.00
57094;BME280;42970;50.996;3.706;2023-02-16T00:15:42;76616.50;;;-146.65;100.00
57094;BME280;42970;50.996;3.706;2023-02-16T00:18:16;76614.50;;;-146.65;100.00
57094;BME280;42970;50.996;3.706;2023-02-16T00:20:42;76614.50;;;-146.65;100.00
57094;BME280;42970;50.996;3.706;2023-02-16T00:23:07;76608.44;;;-146.65;100.00
57094;BME280;42970;50.996;3.706;2023-02-16T00:25:32;76598.34;;;-146.65;100.00
57094;BME280;42970;50.996;3.706;2023-02-16T00:27:57;76586.25;;;-146.65;100.00
57094;BME280;42970;50.996;3.706;2023-02-16T00:30:23;76582.22;;;-146.65;100.00
57094;BME280;42970;50.996;3.706;2023-02-16T00:32:48;76570.09;;;-146.65;100.00
57094;BME280;42970;50.996;3.706;2023-02-16T00:35:15;76551.94;;;-146.65;100.00
57094;BME280;42970;50.996;3.706;2023-02-16T00:37:40;76543.88;;;-146.65;100.00
57094;BME280;42970;50.996;3.706;2023-02-16T00:40:06;76543.88;;;-146.65;100.00
57094;BME280;42970;50.996;3.706;2023-02-16T00:42:31;76525.72;;;-146.65;100.00
57094;BME280;42970;50.996;3.706;2023-02-16T00:44:58;76533.78;;;-146.65;100.00
57094;BME280;42970;50.996;3.706;2023-02-16T00:47:36;76533.78;;;-146.65;100.00
57094;BME280;42970;50.996;3.706;2023-02-16T00:50:44;76517.66;;;-146.65;100.00
57094;BME280;42970;50.996;3.706;2023-02-16T00:52:50;76501.50;;;-146.65;100.00
57094;BME280;42970;50.996;3.706;2023-02-16T00:55:18;76507.56;;;-146.65;100.00
57094;BME280;42970;50.996;3.706;2023-02-16T01:02:41;76535.81;;;-146.65;100.00
57094;BME280;42970;50.996;3.706;2023-02-16T01:05:07;76529.75;;;-146.65;100.00
57094;BME280;42970;50.996;3.706;2023-02-16T01:07:32;76533.78;;;-146.65;100.00
57094;BME280;42970;50.996;3.706;2023-02-16T01:10:17;76545.88;;;-146.65;100.00
57094;BME280;42970;50.996;3.706;2023-02-16T01:13:00;76547.91;;;-146.65;100.00
57094;BME280;42970;50.996;3.706;2023-02-16T01:15:26;76531.75;;;-146.65;100.00
57094;BME280;42970;50.996;3.706;2023-02-16T01:17:52;76541.84;;;-146.65;100.00
57094;BME280;42970;50.996;3.706;2023-02-16T01:20:19;76539.84;;;-146.65;100.00
57094;BME280;42970;50.996;3.706;2023-02-16T01:22:44;76545.88;;;-146.65;100.00
57094;BME280;42970;50.996;3.706;2023-02-16T01:25:10;76545.88;;;-146.65;100.00
57094;BME280;42970;50.996;3.706;2023-02-16T01:27:36;76558.00;;;-146.65;100.00
57094;BME280;42970;50.996;3.706;2023-02-16T01:30:02;76564.03;;;-146.65;100.00
57094;BME280;42970;50.996;3.706;2023-02-16T01:32:28;76539.84;;;-146.65;100.00
57094;BME280;42970;50.996;3.706;2023-02-16T01:34:53;76521.69;;;-146.65;100.00
57094;BME280;42970;50.996;3.706;2023-02-16T01:37:19;76537.81;;;-146.65;100.00
57094;BME280;42970;50.996;3.706;2023-02-16T01:39:44;76533.78;;;-146.65;100.00
57094;BME280;42970;50.996;3.706;2023-02-16T01:44:48;76541.84;;;-146.65;100.00
57094;BME280;42970;50.996;3.706;2023-02-16T01:47:25;76539.84;;;-146.65;100.00
57094;BME280;42970;50.996;3.706;2023-02-16T01:49:53;76513.59;;;-146.65;100.00
57094;BME280;42970;50.996;3.706;2023-02-16T01:52:35;76513.59;;;-146.65;100.00
57094;BME280;42970;50.996;3.706;2023-02-16T01:57:46;76505.53;;;-146.65;100.00
57094;BME280;42970;50.996;3.706;2023-02-16T02:00:21;76509.56;;;-146.65;100.00
57094;BME280;42970;50.996;3.706;2023-02-16T02:02:51;76505.53;;;-146.65;100.00
57094;BME280;42970;50.996;3.706;2023-02-16T02:05:21;76503.53;;;-146.65;100.00
57094;BME280;42970;50.996;3.706;2023-02-16T02:08:02;76485.38;;;-146.65;100.00
57094;BME280;42970;50.996;3.706;2023-02-16T02:10:38;76499.50;;;-146.65;100.00
57094;BME280;42970;50.996;3.706;2023-02-16T02:15:49;76471.25;;;-146.65;100.00
57094;BME280;42970;50.996;3.706;2023-02-16T02:18:15;76465.19;;;-146.65;100.00
57094;BME280;42970;50.996;3.706;2023-02-16T02:20:46;76473.25;;;-146.65;100.00
57094;BME280;42970;50.996;3.706;2023-02-16T02:23:36;76475.28;;;-146.65;100.00
57094;BME280;42970;50.996;3.706;2023-02-16T02:26:10;76477.28;;;-146.65;100.00
57094;BME280;42970;50.996;3.706;2023-02-16T02:31:30;76440.97;;;-146.65;100.00
57094;BME280;42970;50.996;3.706;2023-02-16T02:34:12;76440.97;;;-146.65;100.00
57094;BME280;42970;50.996;3.706;2023-02-16T02:36:48;76436.94;;;-146.65;100.00
57094;BME280;42970;50.996;3.706;2023-02-16T02:39:34;76432.91;;;-146.65;100.00
57094;BME280;42970;50.996;3.706;2023-02-16T02:42:16;76430.88;;;-146.65;100.00
57094;BME280;42970;50.996;3.706;2023-02-16T02:47:09;76436.94;;;-146.65;100.00
57094;BME280;42970;50.996;3.706;2023-02-16T02:49:34;76426.84;;;-146.65;100.00
57094;BME280;42970;50.996;3.706;2023-02-16T02:51:59;76416.78;;;-146.65;100.00
57094;BME280;42970;50.996;3.706;2023-02-16T02:54:27;76414.75;;;-146.65;100.00
57094;BME280;42970;50.996;3.706;2023-02-16T03:00:00;76418.78;;;-146.65;100.00
57094;BME280;42970;50.996;3.706;2023-02-16T03:02:46;76408.69;;;-146.65;100.00
57094;BME280;42970;50.996;3.706;2023-02-16T03:05:12;76416.78;;;-146.65;100.00
57094;BME280;42970;50.996;3.706;2023-02-16T03:07:39;76408.69;;;-146.65;100.00
57094;BME280;42970;50.996;3.706;2023-02-16T03:10:17;76408.69;;;-146.65;100.00
57094;BME280;42970;50.996;3.706;2023-02-16T03:13:01;76400.63;;;-146.65;100.00
57094;BME280;42970;50.996;3.706;2023-02-16T03:15:27;76404.66;;;-146.65;100.00
57094;BME280;42970;50.996;3.706;2023-02-16T03:17:54;76394.56;;;-146.65;100.00
57094;BME280;42970;50.996;3.706;2023-02-16T03:20:39;76404.66;;;-146.65;100.00
57094;BME280;42970;50.996;3.706;2023-02-16T03:23:24;76396.59;;;-146.65;100.00
57094;BME280;42970;50.996;3.706;2023-02-16T03:26:08;76400.63;;;-146.65;100.00
57094;BME280;42970;50.996;3.706;2023-02-16T03:28:53;76390.53;;;-146.65;100.00
57094;BME280;42970;50.996;3.706;2023-02-16T03:31:37;76392.56;;;-146.65;100.00
57094;BME280;42970;50.996;3.706;2023-02-16T03:34:04;76396.59;;;-146.65;100.00
57094;BME280;42970;50.996;3.706;2023-02-16T03:36:30;76392.56;;;-146.65;100.00
57094;BME280;42970;50.996;3.706;2023-02-16T03:38:57;76384.50;;;-146.65;100.00
57094;BME280;42970;50.996;3.706;2023-02-16T03:41:23;76388.53;;;-146.65;100.00
57094;BME280;42970;50.996;3.706;2023-02-16T03:43:48;76384.50;;;-146.65;100.00
57094;BME280;42970;50.996;3.706;2023-02-16T03:46:14;76376.41;;;-146.65;100.00
57094;BME280;42970;50.996;3.706;2023-02-16T03:48:39;76364.31;;;-146.65;100.00
57094;BME280;42970;50.996;3.706;2023-02-16T03:51:04;76370.38;;;-146.65;100.00
57094;BME280;42970;50.996;3.706;2023-02-16T03:53:30;76360.28;;;-146.65;100.00
57094;BME280;42970;50.996;3.706;2023-02-16T03:55:55;76368.34;;;-146.65;100.00
57094;BME280;42970;50.996;3.706;2023-02-16T03:58:21;76362.28;;;-146.65;100.00
57094;BME280;42970;50.996;3.706;2023-02-16T04:00:47;76376.41;;;-146.65;100.00
57094;BME280;42970;50.996;3.706;2023-02-16T04:03:13;76376.41;;;-146.65;100.00
57094;BME280;42970;50.996;3.706;2023-02-16T04:05:38;76378.44;;;-146.65;100.00
57094;BME280;42970;50.996;3.706;2023-02-16T04:08:04;76366.34;;;-146.65;100.00
57094;BME280;42970;50.996;3.706;2023-02-16T04:10:29;76362.28;;;-146.65;100.00
57094;BME280;42970;50.996;3.706;2023-02-16T04:12:55;76352.22;;;-146.65;100.00
57094;BME280;42970;50.996;3.706;2023-02-16T04:15:21;76368.34;;;-146.65;100.00
57094;BME280;42970;50.996;3.706;2023-02-16T04:17:47;76366.34;;;-146.65;100.00
57094;BME280;42970;50.996;3.706;2023-02-16T04:20:17;76362.28;;;-146.65;100.00
57094;BME280;42970;50.996;3.706;2023-02-16T04:22:43;76348.19;;;-146.65;100.00
57094;BME280;42970;50.996;3.706;2023-02-16T04:25:08;76354.22;;;-146.65;100.00
57094;BME280;42970;50.996;3.706;2023-02-16T04:27:34;76344.13;;;-146.65;100.00
57094;BME280;42970;50.996;3.706;2023-02-16T04:30:00;76362.28;;;-146.65;100.00
57094;BME280;42970;50.996;3.706;2023-02-16T04:32:25;76346.16;;;-146.65;100.00
57094;BME280;42970;50.996;3.706;2023-02-16T04:34:50;76352.22;;;-146.65;100.00
57094;BME280;42970;50.996;3.706;2023-02-16T04:37:16;76364.31;;;-146.65;100.00
57094;BME280;42970;50.996;3.706;2023-02-16T04:39:41;76354.22;;;-146.65;100.00
57094;BME280;42970;50.996;3.706;2023-02-16T04:42:06;76358.25;;;-146.65;100.00
57094;BME280;42970;50.996;3.706;2023-02-16T04:44:32;76352.22;;;-146.65;100.00
57094;BME280;42970;50.996;3.706;2023-02-16T04:46:57;76346.16;;;-146.65;100.00
57094;BME280;42970;50.996;3.706;2023-02-16T04:49:22;76348.19;;;-146.65;100.00
57094;BME280;42970;50.996;3.706;2023-02-16T04:51:48;76346.16;;;-146.65;100.00
57094;BME280;42970;50.996;3.706;2023-02-16T04:54:14;76348.19;;;-146.65;100.00
57094;BME280;42970;50.996;3.706;2023-02-16T04:56:42;76352.22;;;-146.65;100.00
57094;BME280;42970;50.996;3.706;2023-02-16T04:59:07;76348.19;;;-146.65;100.00
57094;BME280;42970;50.996;3.706;2023-02-16T05:01:32;76338.09;;;-146.65;100.00
57094;BME280;42970;50.996;3.706;2023-02-16T05:03:58;76344.13;;;-146.65;100.00
57094;BME280;42970;50.996;3.706;2023-02-16T05:06:23;76340.09;;;-146.65;100.00
57094;BME280;42970;50.996;3.706;2023-02-16T05:08:48;76336.06;;;-146.65;100.00
57094;BME280;42970;50.996;3.706;2023-02-16T05:11:14;76346.16;;;-146.65;100.00
57094;BME280;42970;50.996;3.706;2023-02-16T05:13:58;76334.06;;;-146.65;100.00
57094;BME280;42970;50.996;3.706;2023-02-16T05:16:42;76334.06;;;-146.65;100.00
57094;BME280;42970;50.996;3.706;2023-02-16T05:19:07;76321.94;;;-146.65;100.00
57094;BME280;42970;50.996;3.706;2023-02-16T05:21:34;76321.94;;;-146.65;100.00
57094;BME280;42970;50.996;3.706;2023-02-16T05:26:28;76315.91;;;-146.65;100.00
57094;BME280;42970;50.996;3.706;2023-02-16T05:28:56;76328.00;;;-146.65;100.00
57094;BME280;42970;50.996;3.706;2023-02-16T05:31:21;76313.88;;;-146.65;100.00
57094;BME280;42970;50.996;3.706;2023-02-16T05:33:47;76315.91;;;-146.65;100.00
57094;BME280;42970;50.996;3.706;2023-02-16T05:36:12;76307.81;;;-146.65;100.00
57094;BME280;42970;50.996;3.706;2023-02-16T05:38:37;76307.81;;;-146.65;100.00
57094;BME280;42970;50.996;3.706;2023-02-16T05:41:03;76305.81;;;-146.65;100.00
57094;BME280;42970;50.996;3.706;2023-02-16T05:43:28;76325.97;;;-146.65;100.00
57094;BME280;42970;50.996;3.706;2023-02-16T05:45:54;76307.81;;;-146.65;100.00
57094;BME280;42970;50.996;3.706;2023-02-16T05:48:19;76307.81;;;-146.65;100.00
57094;BME280;42970;50.996;3.706;2023-02-16T05:50:44;76309.84;;;-146.65;100.00
57094;BME280;42970;50.996;3.706;2023-02-16T05:53:09;76311.84;;;-146.65;100.00
57094;BME280;42970;50.996;3.706;2023-02-16T05:55:35;76319.94;;;-146.65;100.00
57094;BME280;42970;50.996;3.706;2023-02-16T05:58:00;76334.06;;;-146.65;100.00
57094;BME280;42970;50.996;3.706;2023-02-16T06:00:26;76319.94;;;-146.65;100.00
57094;BME280;42970;50.996;3.706;2023-02-16T06:02:51;76309.84;;;-146.65;100.00
57094;BME280;42970;50.996;3.706;2023-02-16T06:05:17;76311.84;;;-146.65;100.00
57094;BME280;42970;50.996;3.706;2023-02-16T06:07:42;76323.97;;;-146.65;100.00
57094;BME280;42970;50.996;3.706;2023-02-16T06:10:07;76315.91;;;-146.65;100.00
57094;BME280;42970;50.996;3.706;2023-02-16T06:12:33;76325.97;;;-146.65;100.00
57094;BME280;42970;50.996;3.706;2023-02-16T06:14:59;76323.97;;;-146.65;100.00
57094;BME280;42970;50.996;3.706;2023-02-16T06:17:24;76323.97;;;-146.65;100.00
57094;BME280;42970;50.996;3.706;2023-02-16T06:19:50;76323.97;;;-146.65;100.00
57094;BME280;42970;50.996;3.706;2023-02-16T06:22:15;76332.03;;;-146.65;100.00
57094;BME280;42970;50.996;3.706;2023-02-16T06:24:40;76311.84;;;-146.65;100.00
57094;BME280;42970;50.996;3.706;2023-02-16T06:27:06;76311.84;;;-146.65;100.00
57094;BME280;42970;50.996;3.706;2023-02-16T06:29:31;76313.88;;;-146.65;100.00
57094;BME280;42970;50.996;3.706;2023-02-16T06:31:57;76311.84;;;-146.65;100.00
57094;BME280;42970;50.996;3.706;2023-02-16T06:34:22;76307.81;;;-146.65;100.00
57094;BME280;42970;50.996;3.706;2023-02-16T06:36:47;76319.94;;;-146.65;100.00
57094;BME280;42970;50.996;3.706;2023-02-16T06:39:13;76319.94;;;-146.65;100.00
57094;BME280;42970;50.996;3.706;2023-02-16T06:41:38;76307.81;;;-146.65;100.00
57094;BME280;42970;50.996;3.706;2023-02-16T06:44:07;76309.84;;;-146.65;100.00
57094;BME280;42970;50.996;3.706;2023-02-16T06:46:32;76307.81;;;-146.65;100.00
57094;BME280;42970;50.996;3.706;2023-02-16T06:48:58;76307.81;;;-146.65;100.00
57094;BME280;42970;50.996;3.706;2023-02-16T06:51:24;76299.75;;;-146.65;100.00
57094;BME280;42970;50.996;3.706;2023-02-16T06:53:49;76313.88;;;-146.65;100.00
57094;BME280;42970;50.996;3.706;2023-02-16T06:56:14;76303.78;;;-146.65;100.00
57094;BME280;42970;50.996;3.706;2023-02-16T06:58:40;76299.75;;;-146.65;100.00
57094;BME280;42970;50.996;3.706;2023-02-16T07:01:05;76293.69;;;-146.65;100.00
57094;BME280;42970;50.996;3.706;2023-02-16T07:03:31;76295.72;;;-146.65;100.00
57094;BME280;42970;50.996;3.706;2023-02-16T07:05:56;76287.66;;;-146.65;100.00
57094;BME280;42970;50.996;3.706;2023-02-16T07:08:21;76293.69;;;-146.65;100.00
57094;BME280;42970;50.996;3.706;2023-02-16T07:10:47;76287.66;;;-146.65;100.00
57094;BME280;42970;50.996;3.706;2023-02-16T07:13:12;76283.63;;;-146.65;100.00
57094;BME280;42970;50.996;3.706;2023-02-16T07:15:38;76285.63;;;-146.65;100.00
57094;BME280;42970;50.996;3.706;2023-02-16T07:18:03;76263.44;;;-146.65;100.00
57094;BME280;42970;50.996;3.706;2023-02-16T07:20:29;76263.44;;;-146.65;100.00
57094;BME280;42970;50.996;3.706;2023-02-16T07:22:54;76263.44;;;-146.65;100.00
57094;BME280;42970;50.996;3.706;2023-02-16T07:25:20;76261.44;;;-146.65;100.00
57094;BME280;42970;50.996;3.706;2023-02-16T07:27:45;76259.41;;;-146.65;100.00
57094;BME280;42970;50.996;3.706;2023-02-16T07:30:10;76271.50;;;-146.65;100.00
57094;BME280;42970;50.996;3.706;2023-02-16T07:32:36;76283.63;;;-146.65;100.00
57094;BME280;42970;50.996;3.706;2023-02-16T07:35:02;76267.47;;;-146.65;100.00
57094;BME280;42970;50.996;3.706;2023-02-16T07:37:27;76281.59;;;-146.65;100.00
57094;BME280;42970;50.996;3.706;2023-02-16T07:39:53;76281.59;;;-146.65;100.00
57094;BME280;42970;50.996;3.706;2023-02-16T07:42:18;76295.72;;;-146.65;100.00
57094;BME280;42970;50.996;3.706;2023-02-16T07:44:44;76301.78;;;-146.65;100.00
57094;BME280;42970;50.996;3.706;2023-02-16T07:47:09;76303.78;;;-146.65;100.00
57094;BME280;42970;50.996;3.706;2023-02-16T07:49:35;76299.75;;;-146.65;100.00
57094;BME280;42970;50.996;3.706;2023-02-16T07:52:00;76311.84;;;-146.65;100.00
57094;BME280;42970;50.996;3.706;2023-02-16T07:54:25;76307.81;;;-146.65;100.00
57094;BME280;42970;50.996;3.706;2023-02-16T07:56:51;76311.84;;;-146.65;100.00
57094;BME280;42970;50.996;3.706;2023-02-16T07:59:16;76323.97;;;-146.65;100.00
57094;BME280;42970;50.996;3.706;2023-02-16T08:01:41;76299.75;;;-146.65;100.00
57094;BME280;42970;50.996;3.706;2023-02-16T08:04:07;76311.84;;;-146.65;100.00
57094;BME280;42970;50.996;3.706;2023-02-16T08:06:35;76309.84;;;-146.65;100.00
57094;BME280;42970;50.996;3.706;2023-02-16T08:09:00;76311.84;;;-146.65;100.00
57094;BME280;42970;50.996;3.706;2023-02-16T08:11:26;76321.94;;;-146.65;100.00
57094;BME280;42970;50.996;3.706;2023-02-16T08:13:51;76319.94;;;-146.65;100.00
57094;BME280;42970;50.996;3.706;2023-02-16T08:16:18;76325.97;;;-146.65;100.00
57094;BME280;42970;50.996;3.706;2023-02-16T08:18:44;76315.91;;;-146.65;100.00
57094;BME280;42970;50.996;3.706;2023-02-16T08:21:11;76311.84;;;-146.65;100.00
57094;BME280;42970;50.996;3.706;2023-02-16T08:23:43;76332.03;;;-146.65;100.00
57094;BME280;42970;50.996;3.706;2023-02-16T08:26:12;76319.94;;;-146.65;100.00
57094;BME280;42970;50.996;3.706;2023-02-16T08:28:38;76325.97;;;-146.65;100.00
57094;BME280;42970;50.996;3.706;2023-02-16T08:31:12;76323.97;;;-146.65;100.00
57094;BME280;42970;50.996;3.706;2023-02-16T08:33:38;76307.81;;;-146.65;100.00
57094;BME280;42970;50.996;3.706;2023-02-16T08:36:03;76297.75;;;-146.65;100.00
57094;BME280;42970;50.996;3.706;2023-02-16T08:38:29;76307.81;;;-146.65;100.00
57094;BME280;42970;50.996;3.706;2023-02-16T08:40:56;76303.78;;;-146.65;100.00
57094;BME280;42970;50.996;3.706;2023-02-16T08:43:22;76299.75;;;-146.65;100.00
57094;BME280;42970;50.996;3.706;2023-02-16T08:45:47;76297.75;;;-146.65;100.00
57094;BME280;42970;50.996;3.706;2023-02-16T08:48:13;76289.66;;;-146.65;100.00
57094;BME280;42970;50.996;3.706;2023-02-16T08:50:44;76281.59;;;-146.65;100.00
57094;BME280;42970;50.996;3.706;2023-02-16T08:53:20;76277.56;;;-146.65;100.00
57094;BME280;42970;50.996;3.706;2023-02-16T08:55:55;76261.44;;;-146.65;100.00
57094;BME280;42970;50.996;3.706;2023-02-16T08:58:20;76251.34;;;-146.65;100.00
57094;BME280;42970;50.996;3.706;2023-02-16T09:00:46;76231.16;;;-146.65;100.00
57094;BME280;42970;50.996;3.706;2023-02-16T09:03:12;76223.09;;;-146.65;100.00
57094;BME280;42970;50.996;3.706;2023-02-16T09:05:37;76215.03;;;-146.65;100.00
57094;BME280;42970;50.996;3.706;2023-02-16T09:08:03;76206.97;;;-146.65;100.00
57094;BME280;42970;50.996;3.706;2023-02-16T09:10:28;76204.94;;;-146.65;100.00
57094;BME280;42970;50.996;3.706;2023-02-16T09:12:54;76194.84;;;-146.65;100.00
57094;BME280;42970;50.996;3.706;2023-02-16T09:15:19;76213.00;;;-146.65;100.00
57094;BME280;42970;50.996;3.706;2023-02-16T09:17:45;76217.03;;;-146.65;100.00
57094;BME280;42970;50.996;3.706;2023-02-16T09:20:11;76202.91;;;-146.65;100.00
57094;BME280;42970;50.996;3.706;2023-02-16T09:22:36;76174.69;;;-146.65;100.00
57094;BME280;42970;50.996;3.706;2023-02-16T09:25:02;76170.66;;;-146.65;100.00
57094;BME280;42970;50.996;3.706;2023-02-16T09:27:27;76172.66;;;-146.65;100.00
57094;BME280;42970;50.996;3.706;2023-02-16T09:29:52;76170.66;;;-146.65;100.00
57094;BME280;42970;50.996;3.706;2023-02-16T09:32:18;76158.53;;;-146.65;100.00
57094;BME280;42970;50.996;3.706;2023-02-16T09:34:43;76152.50;;;-146.65;100.00
57094;BME280;42970;50.996;3.706;2023-02-16T09:37:09;76158.53;;;-146.65;100.00
57094;BME280;42970;50.996;3.706;2023-02-16T09:39:34;76138.38;;;-146.65;100.00
57094;BME280;42970;50.996;3.706;2023-02-16T09:44:57;76150.47;;;-146.65;100.00
57094;BME280;42970;50.996;3.706;2023-02-16T09:47:27;76144.41;;;-146.65;100.00
57094;BME280;42970;50.996;3.706;2023-02-16T09:49:55;76144.41;;;-146.65;100.00
57094;BME280;42970;50.996;3.706;2023-02-16T09:52:25;76156.53;;;-146.65;100.00
57094;BME280;42970;50.996;3.706;2023-02-16T09:54:53;76132.31;;;-146.65;100.00
57094;BME280;42970;50.996;3.706;2023-02-16T09:57:39;76130.28;;;-146.65;100.00
57094;BME280;42970;50.996;3.706;2023-02-16T10:02:56;76108.09;;;-146.65;100.00
57094;BME280;42970;50.996;3.706;2023-02-16T10:05:31;76104.06;;;-146.65;100.00
57094;BME280;42970;50.996;3.706;2023-02-16T10:08:00;76067.75;;;-146.65;100.00
57094;BME280;42970;50.996;3.706;2023-02-16T10:10:29;76045.56;;;-146.65;100.00
57094;BME280;42970;50.996;3.706;2023-02-16T10:13:01;76033.47;;;-146.65;100.00
57094;BME280;42970;50.996;3.706;2023-02-16T10:15:30;76007.25;;;-146.65;100.00
57094;BME280;42970;50.996;3.706;2023-02-16T10:17:58;75985.03;;;-146.65;100.00
57094;BME280;42970;50.996;3.706;2023-02-16T10:20:36;75993.13;;;-146.65;100.00
57094;BME280;42970;50.996;3.706;2023-02-16T10:30:31;76011.28;;;-146.65;100.00
57094;BME280;42970;50.996;3.706;2023-02-16T10:32:58;76013.28;;;-146.65;100.00
57094;BME280;42970;50.996;3.706;2023-02-16T10:40:36;75989.09;;;-146.65;100.00
57094;BME280;42970;50.996;3.706;2023-02-16T10:48:11;75936.63;;;-146.65;100.00
57094;BME280;42970;50.996;3.706;2023-02-16T10:50:41;75906.38;;;-146.65;100.00
57094;BME280;42970;50.996;3.706;2023-02-16T10:53:28;75900.31;;;-146.65;100.00
57094;BME280;42970;50.996;3.706;2023-02-16T10:55:58;75912.44;;;-146.65;100.00
57094;BME280;42970;50.996;3.706;2023-02-16T10:58:24;75882.16;;;-146.65;100.00
57094;BME280;42970;50.996;3.706;2023-02-16T11:00:55;75853.94;;;-146.65;99.57
57094;BME280;42970;50.996;3.706;2023-02-16T11:03:24;75894.28;;;-146.65;99.65
57094;BME280;42970;50.996;3.706;2023-02-16T11:05:52;75896.28;;;-146.65;99.96
57094;BME280;42970;50.996;3.706;2023-02-16T11:08:18;75862.00;;;-146.65;99.82
57094;BME280;42970;50.996;3.706;2023-02-16T11:10:44;75845.84;;;-146.65;98.57
57094;BME280;42970;50.996;3.706;2023-02-16T11:13:31;75835.78;;;-146.65;96.89
57094;BME280;42970;50.996;3.706;2023-02-16T11:16:05;75732.91;;;-146.65;94.42
57094;BME280;42970;50.996;3.706;2023-02-16T11:21:00;75730.88;;;-146.65;93.68
57094;BME280;42970;50.996;3.706;2023-02-16T11:23:39;75736.94;;;-146.65;94.49
57094;BME280;42970;50.996;3.706;2023-02-16T11:31:00;75757.09;;;-146.65;96.69
57094;BME280;42970;50.996;3.706;2023-02-16T11:33:27;75787.38;;;-146.65;96.65
57094;BME280;42970;50.996;3.706;2023-02-16T11:35:53;75757.09;;;-146.65;95.57
57094;BME280;42970;50.996;3.706;2023-02-16T11:38:29;75734.91;;;-146.65;94.99
57094;BME280;42970;50.996;3.706;2023-02-16T11:40:56;75708.69;;;-146.65;94.27
57094;BME280;42970;50.996;3.706;2023-02-16T11:43:21;75710.72;;;-146.65;94.00
57094;BME280;42970;50.996;3.706;2023-02-16T11:46:01;75700.63;;;-146.65;93.12
57094;BME280;42970;50.996;3.706;2023-02-16T11:48:28;75686.50;;;-146.65;93.01
57094;BME280;42970;50.996;3.706;2023-02-16T11:50:56;75664.31;;;-146.65;93.45
57094;BME280;42970;50.996;3.706;2023-02-16T11:53:26;75692.56;;;-146.65;93.76
57094;BME280;42970;50.996;3.706;2023-02-16T11:56:07;75702.63;;;-146.65;94.68
57094;BME280;42970;50.996;3.706;2023-02-16T11:58:33;75634.06;;;-146.65;93.78
57094;BME280;42970;50.996;3.706;2023-02-16T12:01:04;75648.19;;;-146.65;93.00
57094;BME280;42970;50.996;3.706;2023-02-16T12:08:54;75543.28;;;-146.65;89.43
57094;BME280;42970;50.996;3.706;2023-02-16T12:21:48;75428.31;;;-146.65;84.68
57094;BME280;42970;50.996;3.706;2023-02-16T12:25:15;75504.97;;;-146.65;85.89
57094;BME280;42970;50.996;3.706;2023-02-16T12:27:32;75509.00;;;-146.65;86.99
57094;BME280;42970;50.996;3.706;2023-02-16T12:37:39;75452.53;;;-146.65;87.10
57094;BME280;42970;50.996;3.706;2023-02-16T12:43:09;75525.13;;;-146.65;88.15
57094;BME280;42970;50.996;3.706;2023-02-16T12:45:40;75565.47;;;-146.65;89.77
57094;BME280;42970;50.996;3.706;2023-02-16T12:50:34;75607.84;;;-146.65;91.95
57094;BME280;42970;50.996;3.706;2023-02-16T12:53:20;75617.94;;;-146.65;92.04
57094;BME280;42970;50.996;3.706;2023-02-16T12:55:55;75577.59;;;-146.65;91.49
57094;BME280;42970;50.996;3.706;2023-02-16T12:58:24;75500.94;;;-146.65;90.08
57094;BME280;42970;50.996;3.706;2023-02-16T13:00:51;75507.00;;;-146.65;89.04
57094;BME280;42970;50.996;3.706;2023-02-16T13:08:45;75521.09;;;-146.65;89.37
57094;BME280;42970;50.996;3.706;2023-02-16T13:11:20;75494.88;;;-146.65;89.13
57094;BME280;42970;50.996;3.706;2023-02-16T13:13:46;75480.75;;;-146.65;88.86
57094;BME280;42970;50.996;3.706;2023-02-16T13:16:20;75496.91;;;-146.65;88.60
57094;BME280;42970;50.996;3.706;2023-02-16T13:18:48;75492.88;;;-146.65;88.50
57094;BME280;42970;50.996;3.706;2023-02-16T13:23:55;75472.69;;;-146.65;87.61
57094;BME280;42970;50.996;3.706;2023-02-16T13:31:44;75533.22;;;-146.65;89.48
57094;BME280;42970;50.996;3.706;2023-02-16T13:44:41;75500.94;;;-146.65;89.71
57094;BME280;42970;50.996;3.706;2023-02-16T13:47:05;75484.78;;;-146.65;90.07
57094;BME280;42970;50.996;3.706;2023-02-16T13:49:32;75515.06;;;-146.65;88.70
57094;BME280;42970;50.996;3.706;2023-02-16T13:52:02;75513.03;;;-146.65;88.91
57094;BME280;42970;50.996;3.706;2023-02-16T13:56:54;75507.00;;;-146.65;90.18
57094;BME280;42970;50.996;3.706;2023-02-16T14:01:48;75513.03;;;-146.65;90.59
57094;BME280;42970;50.996;3.706;2023-02-16T14:06:45;75525.13;;;-146.65;90.38
57094;BME280;42970;50.996;3.706;2023-02-16T14:14:37;75511.03;;;-146.65;90.34
57094;BME280;42970;50.996;3.706;2023-02-16T14:22:20;75521.09;;;-146.65;91.09
57094;BME280;42970;50.996;3.706;2023-02-16T14:24:50;75533.22;;;-146.65;91.92
57094;BME280;42970;50.996;3.706;2023-02-16T14:27:38;75525.13;;;-146.65;91.49
57094;BME280;42970;50.996;3.706;2023-02-16T14:30:02;75529.16;;;-146.65;92.19
57094;BME280;42970;50.996;3.706;2023-02-16T14:32:32;75539.25;;;-146.65;91.64
57094;BME280;42970;50.996;3.706;2023-02-16T14:35:04;75543.28;;;-146.65;91.50
57094;BME280;42970;50.996;3.706;2023-02-16T14:37:52;75543.28;;;-146.65;90.71
57094;BME280;42970;50.996;3.706;2023-02-16T14:40:20;75553.38;;;-146.65;90.93
57094;BME280;42970;50.996;3.706;2023-02-16T14:42:53;75533.22;;;-146.65;91.31
57094;BME280;42970;50.996;3.706;2023-02-16T14:55:53;75533.22;;;-146.65;91.29